Time;durP1;ratioP1;P1;durP2;ratioP2;P2;SDS_P1;SDS_P2;PMS_P1;PMS_P2;Temp;Humidity;BMP_temperature;BMP_pressure;BME280_temperature;BME280_humidity;BME280_pressure;Samples;Min_cycle;Max_cycle;Signal;HPM_P1;HPM_P2
2023/09/04 00:02:07;;;;;;;24.40;17.45;;;;;;;;;;4992052;28;20034;-77
2023/09/04 00:04:33;;;;;;;24.92;17.85;;;;;;;;;;5009580;28;20096;-77
2023/09/04 00:06:59;;;;;;;22.85;15.77;;;;;;;;;;4982254;28;20026;-77
2023/09/04 00:09:25;;;;;;;26.58;17.63;;;;;;;;;;4991857;28;20628;-78
2023/09/04 00:11:51;;;;;;;28.13;18.17;;;;;;;;;;5010470;28;20030;-76
2023/09/04 00:14:18;;;;;;;28.65;17.55;;;;;;;;;;5007607;28;20100;-76
2023/09/04 00:16:44;;;;;;;24.27;16.35;;;;;;;;;;5008541;28;20033;-77
2023/09/04 00:19:11;;;;;;;22.83;16.48;;;;;;;;;;5009857;28;20088;-77
2023/09/04 00:21:37;;;;;;;25.10;16.48;;;;;;;;;;5009956;28;20038;-76
2023/09/04 00:24:03;;;;;;;25.17;17.85;;;;;;;;;;4987521;28;20526;-76
2023/09/04 00:26:29;;;;;;;27.58;16.67;;;;;;;;;;5009032;28;20033;-78
2023/09/04 00:28:55;;;;;;;22.17;15.73;;;;;;;;;;4992396;28;20405;-76
2023/09/04 00:31:22;;;;;;;23.08;15.50;;;;;;;;;;5007988;28;20542;-76
2023/09/04 00:33:48;;;;;;;29.92;18.90;;;;;;;;;;5006205;28;20026;-75
2023/09/04 00:36:15;;;;;;;30.13;19.33;;;;;;;;;;5001507;28;20038;-77
2023/09/04 00:38:41;;;;;;;32.60;21.00;;;;;;;;;;4987040;28;20052;-76
2023/09/04 00:41:07;;;;;;;31.05;21.05;;;;;;;;;;5005068;28;20034;-76
2023/09/04 00:43:36;;;;;;;35.35;23.85;;;;;;;;;;5009223;28;20029;-77
2023/09/04 00:46:03;;;;;;;40.63;23.52;;;;;;;;;;4991958;28;20667;-75
2023/09/04 00:48:30;;;;;;;38.15;24.00;;;;;;;;;;4991764;28;20102;-76
2023/09/04 00:50:56;;;;;;;34.13;23.48;;;;;;;;;;5007673;28;20116;-77
2023/09/04 00:53:23;;;;;;;35.33;24.50;;;;;;;;;;4976423;28;20121;-76
2023/09/04 00:55:49;;;;;;;34.92;24.15;;;;;;;;;;4993809;28;20046;-76
2023/09/04 00:58:15;;;;;;;37.10;24.92;;;;;;;;;;4976569;28;20032;-76
2023/09/04 01:00:42;;;;;;;34.30;24.40;;;;;;;;;;4981347;28;20030;-75
2023/09/04 01:03:09;;;;;;;35.97;23.88;;;;;;;;;;4991781;28;20038;-76
2023/09/04 01:05:35;;;;;;;39.47;23.65;;;;;;;;;;5002462;28;20376;-77
2023/09/04 01:08:03;;;;;;;35.97;22.42;;;;;;;;;;5005269;28;20053;-80
2023/09/04 01:10:33;;;;;;;33.95;23.88;;;;;;;;;;4980239;28;20029;-76
2023/09/04 01:13:22;;;;;;;39.97;26.33;;;;;;;;;;5009784;28;20030;-77
2023/09/04 01:15:48;;;;;;;37.55;24.23;;;;;;;;;;5013509;28;20514;-76
2023/09/04 01:18:14;;;;;;;37.05;23.63;;;;;;;;;;4995762;28;20057;-76
2023/09/04 01:20:40;;;;;;;38.17;24.02;;;;;;;;;;4993507;28;20026;-76
2023/09/04 01:23:08;;;;;;;39.13;25.17;;;;;;;;;;4974342;28;20165;-77
2023/09/04 01:25:54;;;;;;;34.35;22.63;;;;;;;;;;5012789;28;20060;-77
2023/09/04 01:28:59;;;;;;;27.42;19.00;;;;;;;;;;5012703;28;20080;-77
2023/09/04 01:31:44;;;;;;;21.92;16.25;;;;;;;;;;4894905;29;20036;-77
2023/09/04 01:34:12;;;;;;;23.75;15.98;;;;;;;;;;4903483;29;20161;-78
2023/09/04 01:36:39;;;;;;;27.98;17.95;;;;;;;;;;4968962;28;20057;-77
2023/09/04 01:39:06;;;;;;;28.23;18.52;;;;;;;;;;5007287;28;20057;-78
2023/09/04 01:41:37;;;;;;;27.35;17.42;;;;;;;;;;4996074;28;20034;-76
2023/09/04 01:44:03;;;;;;;28.88;18.63;;;;;;;;;;4985601;28;20189;-77
2023/09/04 01:46:30;;;;;;;31.05;19.90;;;;;;;;;;4977077;28;20030;-76
2023/09/04 01:48:56;;;;;;;27.05;18.17;;;;;;;;;;4990361;28;20033;-76
2023/09/04 01:51:22;;;;;;;29.40;18.23;;;;;;;;;;4993938;28;20022;-77
2023/09/04 01:53:48;;;;;;;29.98;18.10;;;;;;;;;;5006222;28;20033;-77
2023/09/04 01:56:14;;;;;;;28.13;16.83;;;;;;;;;;4979554;28;20037;-78
2023/09/04 01:58:40;;;;;;;30.23;18.52;;;;;;;;;;4979835;28;20049;-76
2023/09/04 02:01:07;;;;;;;31.95;19.20;;;;;;;;;;4995611;28;20120;-82
2023/09/04 02:03:33;;;;;;;30.90;19.45;;;;;;;;;;5014513;28;20061;-76
2023/09/04 02:06:00;;;;;;;32.03;19.63;;;;;;;;;;5010548;28;20030;-77
2023/09/04 02:08:26;;;;;;;40.63;23.15;;;;;;;;;;5012008;28;20044;-76
2023/09/04 02:10:52;;;;;;;38.97;23.55;;;;;;;;;;4990059;28;20066;-77
2023/09/04 02:13:18;;;;;;;41.30;24.52;;;;;;;;;;5011134;28;20034;-77
2023/09/04 02:15:44;;;;;;;38.97;24.00;;;;;;;;;;5011126;28;20061;-76
2023/09/04 02:18:12;;;;;;;43.28;25.90;;;;;;;;;;4974415;28;20517;-75
2023/09/04 02:20:38;;;;;;;43.22;24.73;;;;;;;;;;4990709;28;20396;-75
2023/09/04 02:23:04;;;;;;;39.22;23.70;;;;;;;;;;4990121;28;20114;-76
2023/09/04 02:25:30;;;;;;;41.97;23.83;;;;;;;;;;4988471;28;20058;-75
2023/09/04 02:27:56;;;;;;;45.25;24.95;;;;;;;;;;4989698;28;20034;-76
2023/09/04 02:30:22;;;;;;;44.63;26.70;;;;;;;;;;4981151;28;20039;-78
2023/09/04 02:32:49;;;;;;;44.97;27.63;;;;;;;;;;4990006;28;20054;-79
2023/09/04 02:35:15;;;;;;;50.65;30.25;;;;;;;;;;4983036;28;20038;-78
2023/09/04 02:37:43;;;;;;;51.67;29.63;;;;;;;;;;4987344;28;20054;-75
2023/09/04 02:40:09;;;;;;;47.83;28.98;;;;;;;;;;4991022;28;20096;-76
2023/09/04 02:42:36;;;;;;;50.85;29.85;;;;;;;;;;4978334;28;20057;-77
2023/09/04 02:45:02;;;;;;;47.50;29.35;;;;;;;;;;4999218;28;20068;-76
2023/09/04 02:47:29;;;;;;;46.50;28.20;;;;;;;;;;4991767;28;20026;-76
2023/09/04 02:49:55;;;;;;;44.60;27.35;;;;;;;;;;4992243;28;20054;-76
2023/09/04 02:52:21;;;;;;;40.42;26.02;;;;;;;;;;4987854;28;20043;-77
2023/09/04 02:54:47;;;;;;;41.00;26.33;;;;;;;;;;4985785;28;20037;-77
2023/09/04 02:57:14;;;;;;;35.88;24.95;;;;;;;;;;4986526;28;20117;-77
2023/09/04 02:59:40;;;;;;;34.85;24.35;;;;;;;;;;4990862;28;20038;-76
2023/09/04 03:02:06;;;;;;;37.38;24.38;;;;;;;;;;4991576;28;20354;-75
2023/09/04 03:04:33;;;;;;;37.60;24.40;;;;;;;;;;4990868;28;20038;-77
2023/09/04 03:06:59;;;;;;;37.90;24.52;;;;;;;;;;4971919;28;20034;-75
2023/09/04 03:09:25;;;;;;;40.38;25.02;;;;;;;;;;4986070;28;20031;-75
2023/09/04 03:11:51;;;;;;;44.03;24.35;;;;;;;;;;4991180;28;20030;-76
2023/09/04 03:14:18;;;;;;;41.03;24.55;;;;;;;;;;5006248;28;20057;-77
2023/09/04 03:16:44;;;;;;;42.97;26.33;;;;;;;;;;4986275;28;20042;-77
2023/09/04 03:19:10;;;;;;;34.75;24.02;;;;;;;;;;4989401;28;20612;-77
2023/09/04 03:21:37;;;;;;;37.05;24.58;;;;;;;;;;4989610;28;20034;-77
2023/09/04 03:24:03;;;;;;;39.38;25.92;;;;;;;;;;4986138;28;20061;-76
2023/09/04 03:26:30;;;;;;;41.08;26.10;;;;;;;;;;4989517;28;20558;-77
2023/09/04 03:28:57;;;;;;;37.35;24.60;;;;;;;;;;4982492;28;20097;-77
2023/09/04 03:31:23;;;;;;;41.58;23.92;;;;;;;;;;4980193;28;20437;-77
2023/09/04 03:33:50;;;;;;;42.03;25.40;;;;;;;;;;4991033;28;20034;-78
2023/09/04 03:36:16;;;;;;;38.72;23.40;;;;;;;;;;4994120;28;20041;-77
2023/09/04 03:38:42;;;;;;;40.30;25.27;;;;;;;;;;4974939;28;20034;-77
2023/09/04 03:41:09;;;;;;;43.65;25.63;;;;;;;;;;4983012;28;20129;-78
2023/09/04 03:43:35;;;;;;;42.08;26.75;;;;;;;;;;4982235;28;20089;-76
2023/09/04 03:46:01;;;;;;;45.97;26.27;;;;;;;;;;4987356;28;20053;-77
2023/09/04 03:48:28;;;;;;;50.42;29.48;;;;;;;;;;4986205;28;20134;-75
2023/09/04 03:50:59;;;;;;;53.22;29.85;;;;;;;;;;4968630;28;20046;-77
2023/09/04 03:53:26;;;;;;;51.90;28.92;;;;;;;;;;4991316;28;20030;-76
2023/09/04 03:55:52;;;;;;;49.72;29.25;;;;;;;;;;4984690;28;20094;-76
2023/09/04 03:58:18;;;;;;;61.80;31.63;;;;;;;;;;4986044;28;20031;-74
2023/09/04 04:00:44;;;;;;;54.35;30.27;;;;;;;;;;4978399;28;20031;-75
2023/09/04 04:03:11;;;;;;;49.28;29.48;;;;;;;;;;4971393;28;20031;-75
2023/09/04 04:05:37;;;;;;;56.10;30.98;;;;;;;;;;4970383;28;20038;-76
2023/09/04 04:08:04;;;;;;;53.05;31.05;;;;;;;;;;4975733;28;20050;-76
2023/09/04 04:10:30;;;;;;;59.25;32.08;;;;;;;;;;4988797;28;20030;-77
2023/09/04 04:12:56;;;;;;;56.55;29.80;;;;;;;;;;4973231;28;20095;-77
2023/09/04 04:15:22;;;;;;;68.60;32.95;;;;;;;;;;4986165;28;20031;-76
2023/09/04 04:17:48;;;;;;;58.63;32.03;;;;;;;;;;4974485;28;20092;-77
2023/09/04 04:20:16;;;;;;;64.68;33.72;;;;;;;;;;4988959;28;20040;-77
2023/09/04 04:22:42;;;;;;;69.30;35.03;;;;;;;;;;5002542;28;20046;-77
2023/09/04 04:25:10;;;;;;;75.55;37.28;;;;;;;;;;5009978;28;20038;-78
2023/09/04 04:27:38;;;;;;;65.00;37.10;;;;;;;;;;5009794;28;20033;-75
2023/09/04 04:30:05;;;;;;;64.70;35.95;;;;;;;;;;4991795;28;20042;-77
2023/09/04 04:32:32;;;;;;;68.07;37.70;;;;;;;;;;5009143;28;20034;-76
2023/09/04 04:34:58;;;;;;;73.10;37.70;;;;;;;;;;4990835;28;20049;-76
2023/09/04 04:37:25;;;;;;;69.55;39.47;;;;;;;;;;4991685;28;20408;-76
2023/09/04 04:39:52;;;;;;;74.90;39.13;;;;;;;;;;4982234;28;20030;-77
2023/09/04 04:42:19;;;;;;;75.28;38.83;;;;;;;;;;5005233;28;20109;-77
2023/09/04 04:44:45;;;;;;;66.05;37.50;;;;;;;;;;5008425;28;20034;-78
2023/09/04 04:47:13;;;;;;;65.53;37.58;;;;;;;;;;5008047;28;20366;-78
2023/09/04 04:49:40;;;;;;;68.72;39.08;;;;;;;;;;4992804;28;20026;-77
2023/09/04 04:52:06;;;;;;;61.10;37.22;;;;;;;;;;5014551;28;20030;-80
2023/09/04 04:54:33;;;;;;;65.85;38.00;;;;;;;;;;4998219;28;20376;-77
2023/09/04 04:56:59;;;;;;;62.92;36.40;;;;;;;;;;5015309;28;20029;-78
2023/09/04 04:59:25;;;;;;;59.08;35.67;;;;;;;;;;4997575;28;20034;-78
2023/09/04 05:01:51;;;;;;;61.47;35.33;;;;;;;;;;4993406;28;20030;-76
2023/09/04 05:04:17;;;;;;;59.95;33.20;;;;;;;;;;4979206;28;20406;-76
2023/09/04 05:06:46;;;;;;;54.92;32.28;;;;;;;;;;5013708;28;20038;-78
2023/09/04 05:09:12;;;;;;;63.83;35.17;;;;;;;;;;4993908;28;20042;-76
2023/09/04 05:11:38;;;;;;;55.95;32.97;;;;;;;;;;5012003;28;20041;-76
2023/09/04 05:14:05;;;;;;;54.72;32.20;;;;;;;;;;4992602;28;20030;-78
2023/09/04 05:16:31;;;;;;;52.70;32.50;;;;;;;;;;4993364;28;20080;-76
2023/09/04 05:18:58;;;;;;;54.13;32.20;;;;;;;;;;4992139;28;20056;-77
2023/09/04 05:21:24;;;;;;;50.05;31.38;;;;;;;;;;5014165;28;20487;-80
2023/09/04 05:23:52;;;;;;;58.92;34.47;;;;;;;;;;4993889;28;20101;-76
2023/09/04 05:26:18;;;;;;;55.22;34.72;;;;;;;;;;4989790;28;20042;-77
2023/09/04 05:28:44;;;;;;;55.30;32.92;;;;;;;;;;4993155;28;20057;-76
2023/09/04 05:31:10;;;;;;;55.15;32.85;;;;;;;;;;4993141;28;20113;-77
2023/09/04 05:33:36;;;;;;;50.65;31.35;;;;;;;;;;5001078;28;20037;-76
2023/09/04 05:36:02;;;;;;;41.75;27.33;;;;;;;;;;4988721;28;20046;-77
2023/09/04 05:38:29;;;;;;;38.33;25.35;;;;;;;;;;4997534;28;20034;-77
2023/09/04 05:40:55;;;;;;;26.00;19.60;;;;;;;;;;4992814;28;20543;-77
2023/09/04 05:43:24;;;;;;;21.17;16.98;;;;;;;;;;4988642;28;21115;-78
2023/09/04 05:45:50;;;;;;;20.55;14.20;;;;;;;;;;4994982;28;20030;-76
2023/09/04 05:48:16;;;;;;;16.45;11.43;;;;;;;;;;4990491;28;20137;-77
2023/09/04 05:50:43;;;;;;;15.23;11.85;;;;;;;;;;4990345;28;20034;-77
2023/09/04 05:53:09;;;;;;;15.40;10.82;;;;;;;;;;5003274;28;20030;-78
2023/09/04 05:55:38;;;;;;;11.10;9.90;;;;;;;;;;4993928;28;20026;-76
2023/09/04 05:58:04;;;;;;;12.07;10.60;;;;;;;;;;5003328;28;20030;-78
2023/09/04 06:00:30;;;;;;;13.75;11.88;;;;;;;;;;5001802;28;20037;-76
2023/09/04 06:02:56;;;;;;;15.00;12.02;;;;;;;;;;4996222;28;20069;-77
2023/09/04 06:05:24;;;;;;;19.38;13.05;;;;;;;;;;5002298;28;20033;-77
2023/09/04 06:07:50;;;;;;;17.27;13.60;;;;;;;;;;4995422;28;20095;-76
2023/09/04 06:10:16;;;;;;;14.43;12.60;;;;;;;;;;4990542;28;20074;-77
2023/09/04 06:12:42;;;;;;;26.08;16.23;;;;;;;;;;4990480;28;20054;-75
2023/09/04 06:15:09;;;;;;;19.00;12.65;;;;;;;;;;4986393;28;20034;-76
2023/09/04 06:17:36;;;;;;;17.92;14.23;;;;;;;;;;4991166;28;20026;-75
2023/09/04 06:20:03;;;;;;;20.45;15.85;;;;;;;;;;4996084;28;20049;-76
2023/09/04 06:22:31;;;;;;;18.77;14.75;;;;;;;;;;4990756;28;20049;-76
2023/09/04 06:24:57;;;;;;;17.13;13.13;;;;;;;;;;4988634;28;20050;-77
2023/09/04 06:27:25;;;;;;;16.48;13.57;;;;;;;;;;4987489;28;20034;-76
2023/09/04 06:29:51;;;;;;;17.80;12.43;;;;;;;;;;4989753;28;20802;-75
2023/09/04 06:32:17;;;;;;;14.18;11.50;;;;;;;;;;4985014;28;20042;-76
2023/09/04 06:34:43;;;;;;;13.60;11.88;;;;;;;;;;4986133;28;20125;-75
2023/09/04 06:37:10;;;;;;;15.57;12.27;;;;;;;;;;4989462;28;20042;-75
2023/09/04 06:39:36;;;;;;;17.50;12.80;;;;;;;;;;4978657;28;20038;-76
2023/09/04 06:42:02;;;;;;;15.85;12.57;;;;;;;;;;4992925;28;20049;-79
2023/09/04 06:44:32;;;;;;;19.02;15.48;;;;;;;;;;4990531;28;20499;-76
2023/09/04 06:46:58;;;;;;;16.75;14.35;;;;;;;;;;4989319;28;20101;-76
2023/09/04 06:49:24;;;;;;;20.70;15.57;;;;;;;;;;4990883;28;20069;-75
2023/09/04 06:51:50;;;;;;;17.63;14.85;;;;;;;;;;4992110;28;20039;-75
2023/09/04 06:54:16;;;;;;;17.40;15.57;;;;;;;;;;4991361;28;20034;-75
2023/09/04 06:56:43;;;;;;;22.17;16.42;;;;;;;;;;4987903;28;20395;-75
2023/09/04 06:59:09;;;;;;;20.73;16.58;;;;;;;;;;4975231;28;20065;-84
2023/09/04 07:01:35;;;;;;;19.33;16.23;;;;;;;;;;4984325;28;20034;-75
2023/09/04 07:04:01;;;;;;;18.95;15.52;;;;;;;;;;4985188;28;20043;-75
2023/09/04 07:06:27;;;;;;;24.90;15.10;;;;;;;;;;4984451;28;20042;-75
2023/09/04 07:08:54;;;;;;;25.13;15.88;;;;;;;;;;4991097;28;20030;-74
2023/09/04 07:11:20;;;;;;;20.70;15.82;;;;;;;;;;4989265;28;20030;-74
2023/09/04 07:13:46;;;;;;;23.52;15.88;;;;;;;;;;4972869;28;20080;-75
2023/09/04 07:16:12;;;;;;;18.77;15.13;;;;;;;;;;4990937;28;20034;-75
2023/09/04 07:18:38;;;;;;;17.90;14.20;;;;;;;;;;4989887;28;20030;-76
2023/09/04 07:21:04;;;;;;;17.00;13.40;;;;;;;;;;4985515;28;20160;-75
2023/09/04 07:23:31;;;;;;;16.65;13.23;;;;;;;;;;4954352;28;20066;-76
2023/09/04 07:25:57;;;;;;;17.92;13.48;;;;;;;;;;4989690;28;20031;-76
2023/09/04 07:28:23;;;;;;;17.98;14.80;;;;;;;;;;4988943;28;20058;-75
2023/09/04 07:30:50;;;;;;;17.42;13.93;;;;;;;;;;4980648;28;20034;-76
2023/09/04 07:33:16;;;;;;;18.83;14.25;;;;;;;;;;4979309;28;20098;-76
2023/09/04 07:35:42;;;;;;;20.52;14.48;;;;;;;;;;4986813;28;20115;-76
2023/09/04 07:38:08;;;;;;;17.40;14.13;;;;;;;;;;4986719;28;20187;-75
2023/09/04 07:40:34;;;;;;;21.02;13.95;;;;;;;;;;4986335;28;20031;-75
2023/09/04 07:43:01;;;;;;;19.23;13.90;;;;;;;;;;4976435;28;20035;-75
2023/09/04 07:45:27;;;;;;;18.75;14.35;;;;;;;;;;4989619;28;20034;-76
2023/09/04 07:47:53;;;;;;;17.48;13.55;;;;;;;;;;4989606;28;20030;-76
2023/09/04 07:50:20;;;;;;;17.85;14.38;;;;;;;;;;4988773;28;20022;-76
2023/09/04 07:52:46;;;;;;;18.63;13.80;;;;;;;;;;4990653;28;20411;-75
2023/09/04 07:55:12;;;;;;;16.15;13.20;;;;;;;;;;4984240;28;20043;-74
2023/09/04 07:57:38;;;;;;;15.45;13.60;;;;;;;;;;4986835;28;20088;-75
2023/09/04 08:00:05;;;;;;;18.02;13.05;;;;;;;;;;4987771;28;20053;-75
2023/09/04 08:02:39;;;;;;;17.25;12.20;;;;;;;;;;4985515;28;20134;-75
2023/09/04 08:05:05;;;;;;;15.57;11.95;;;;;;;;;;4973239;28;20027;-76
2023/09/04 08:07:32;;;;;;;14.05;10.65;;;;;;;;;;4970581;28;20038;-76
2023/09/04 08:09:58;;;;;;;14.27;11.10;;;;;;;;;;4972746;28;20035;-76
2023/09/04 08:12:24;;;;;;;13.02;10.15;;;;;;;;;;4979877;28;20038;-77
2023/09/04 08:14:51;;;;;;;13.13;9.95;;;;;;;;;;4968999;28;20097;-77
2023/09/04 08:17:17;;;;;;;13.02;9.57;;;;;;;;;;4979238;28;20058;-75
2023/09/04 08:19:44;;;;;;;13.50;10.43;;;;;;;;;;4989374;28;20026;-77
2023/09/04 08:22:10;;;;;;;15.88;10.25;;;;;;;;;;4985498;28;20042;-76
2023/09/04 08:24:36;;;;;;;13.70;10.52;;;;;;;;;;4984997;28;20057;-76
2023/09/04 08:27:02;;;;;;;16.85;10.48;;;;;;;;;;4988509;28;20069;-76
2023/09/04 08:29:28;;;;;;;14.32;9.55;;;;;;;;;;4978913;28;20042;-77
2023/09/04 08:31:54;;;;;;;14.88;9.95;;;;;;;;;;4985878;28;20038;-76
2023/09/04 08:34:21;;;;;;;12.35;9.52;;;;;;;;;;4987142;28;20096;-77
2023/09/04 08:36:47;;;;;;;14.13;9.85;;;;;;;;;;4981350;28;20062;-76
2023/09/04 08:39:13;;;;;;;16.10;10.23;;;;;;;;;;4973879;28;20030;-78
2023/09/04 08:41:39;;;;;;;12.52;9.98;;;;;;;;;;4988733;28;20045;-76
2023/09/04 08:44:08;;;;;;;14.30;10.32;;;;;;;;;;4988860;28;20038;-75
2023/09/04 08:46:35;;;;;;;12.68;9.93;;;;;;;;;;4990078;28;20034;-76
2023/09/04 08:49:02;;;;;;;16.08;9.90;;;;;;;;;;4988067;28;20027;-75
2023/09/04 08:51:29;;;;;;;12.95;9.82;;;;;;;;;;4975976;28;20259;-77
2023/09/04 08:53:56;;;;;;;12.80;9.73;;;;;;;;;;4981325;28;20031;-76
2023/09/04 08:56:22;;;;;;;10.52;8.50;;;;;;;;;;4993732;28;20031;-76
2023/09/04 08:58:48;;;;;;;13.45;8.80;;;;;;;;;;4988767;28;20124;-76
2023/09/04 09:01:14;;;;;;;10.90;7.80;;;;;;;;;;4985663;28;20190;-77
2023/09/04 09:03:42;;;;;;;10.65;7.70;;;;;;;;;;4974112;28;20038;-74
2023/09/04 09:06:27;;;;;;;11.23;8.05;;;;;;;;;;4981991;28;20373;-75
2023/09/04 09:08:53;;;;;;;11.10;7.82;;;;;;;;;;4973946;28;20026;-74
2023/09/04 09:11:19;;;;;;;10.63;8.07;;;;;;;;;;5003098;28;20130;-75
2023/09/04 09:13:47;;;;;;;13.13;7.70;;;;;;;;;;4984031;28;20034;-77
2023/09/04 09:16:18;;;;;;;9.30;6.57;;;;;;;;;;4982634;28;20161;-76
2023/09/04 09:18:44;;;;;;;9.88;6.57;;;;;;;;;;4988460;28;20045;-77
2023/09/04 09:21:21;;;;;;;10.75;6.18;;;;;;;;;;4973025;28;20062;-77
2023/09/04 09:23:47;;;;;;;7.32;6.13;;;;;;;;;;4996942;28;20091;-77
2023/09/04 09:26:14;;;;;;;9.18;5.72;;;;;;;;;;5005034;28;20026;-75
2023/09/04 09:28:42;;;;;;;8.27;5.45;;;;;;;;;;4993100;28;20038;-75
2023/09/04 09:31:09;;;;;;;7.60;5.72;;;;;;;;;;5003668;28;20026;-76
2023/09/04 09:33:35;;;;;;;9.85;5.93;;;;;;;;;;4988052;28;20038;-75
2023/09/04 09:36:01;;;;;;;8.00;5.57;;;;;;;;;;4995224;28;20089;-75
2023/09/04 09:38:28;;;;;;;7.60;4.60;;;;;;;;;;4977260;28;20088;-77
2023/09/04 09:40:55;;;;;;;7.72;5.30;;;;;;;;;;5010825;28;20038;-75
2023/09/04 09:43:21;;;;;;;9.18;5.68;;;;;;;;;;4995456;28;20113;-75
2023/09/04 09:45:50;;;;;;;8.02;5.43;;;;;;;;;;4995041;28;20045;-75
2023/09/04 09:48:20;;;;;;;8.73;5.00;;;;;;;;;;5011452;28;20083;-75
2023/09/04 09:50:46;;;;;;;10.82;6.15;;;;;;;;;;5011356;28;20044;-74
2023/09/04 09:53:12;;;;;;;8.52;5.25;;;;;;;;;;5008580;28;20061;-75
2023/09/04 09:55:38;;;;;;;8.70;4.90;;;;;;;;;;5003127;28;20054;-76
2023/09/04 09:58:07;;;;;;;8.02;4.82;;;;;;;;;;4990211;28;20034;-75
2023/09/04 10:00:34;;;;;;;6.72;4.63;;;;;;;;;;5008321;28;20164;-76
2023/09/04 10:03:01;;;;;;;6.20;4.63;;;;;;;;;;4993623;28;20050;-75
2023/09/04 10:05:29;;;;;;;6.85;4.47;;;;;;;;;;4983144;28;20079;-75
2023/09/04 10:08:03;;;;;;;6.43;4.55;;;;;;;;;;5007533;28;20019;-74
2023/09/04 10:10:36;;;;;;;7.45;4.75;;;;;;;;;;5008612;28;20033;-74
2023/09/04 10:13:05;;;;;;;8.38;4.93;;;;;;;;;;4987283;28;20113;-75
2023/09/04 10:15:34;;;;;;;13.07;5.97;;;;;;;;;;5008478;28;20033;-75
2023/09/04 10:18:00;;;;;;;7.10;5.30;;;;;;;;;;5004546;28;20029;-76
2023/09/04 10:20:27;;;;;;;8.00;5.60;;;;;;;;;;4992697;28;20113;-75
2023/09/04 10:22:57;;;;;;;7.60;5.03;;;;;;;;;;5006043;28;20022;-76
2023/09/04 10:25:42;;;;;;;7.90;5.20;;;;;;;;;;4989043;28;20117;-76
2023/09/04 10:28:12;;;;;;;8.98;5.05;;;;;;;;;;5005687;28;20129;-75
2023/09/04 10:30:39;;;;;;;7.45;4.90;;;;;;;;;;4985056;28;20097;-76
2023/09/04 10:33:06;;;;;;;8.13;5.25;;;;;;;;;;5006947;28;20102;-76
2023/09/04 10:35:32;;;;;;;8.10;5.15;;;;;;;;;;4985363;28;20124;-76
2023/09/04 10:37:59;;;;;;;10.18;6.10;;;;;;;;;;5008927;28;20456;-75
2023/09/04 10:40:28;;;;;;;13.57;5.88;;;;;;;;;;5011310;28;20026;-76
2023/09/04 10:42:56;;;;;;;9.43;6.27;;;;;;;;;;5007925;28;20100;-76
2023/09/04 10:45:23;;;;;;;10.15;6.00;;;;;;;;;;5010452;28;20339;-76
2023/09/04 10:47:50;;;;;;;8.13;5.78;;;;;;;;;;4992105;28;20034;-76
2023/09/04 10:50:37;;;;;;;10.10;6.70;;;;;;;;;;5005433;28;20026;-78
2023/09/04 10:53:04;;;;;;;9.95;6.10;;;;;;;;;;5003757;28;20030;-77
2023/09/04 10:55:31;;;;;;;11.52;6.43;;;;;;;;;;5009543;28;20022;-75
2023/09/04 10:57:58;;;;;;;10.50;6.07;;;;;;;;;;5006262;28;20040;-77
2023/09/04 11:00:28;;;;;;;12.98;6.20;;;;;;;;;;4961283;28;20134;-76
2023/09/04 11:02:55;;;;;;;7.68;5.75;;;;;;;;;;4968870;28;20454;-77
2023/09/04 11:05:21;;;;;;;7.93;6.40;;;;;;;;;;4959227;28;20039;-77
2023/09/04 11:07:47;;;;;;;12.27;6.20;;;;;;;;;;4950584;28;20034;-75
2023/09/04 11:10:14;;;;;;;11.02;5.65;;;;;;;;;;4937537;28;20071;-75
2023/09/04 11:12:40;;;;;;;8.35;5.45;;;;;;;;;;4949407;28;20114;-76
2023/09/04 11:15:14;;;;;;;6.00;5.15;;;;;;;;;;4949841;28;20055;-76
2023/09/04 11:17:41;;;;;;;8.85;5.53;;;;;;;;;;4950088;28;20090;-75
2023/09/04 11:20:09;;;;;;;7.07;5.50;;;;;;;;;;4953515;28;20097;-75
2023/09/04 11:22:35;;;;;;;7.18;5.28;;;;;;;;;;4965116;28;20630;-76
2023/09/04 11:25:01;;;;;;;8.23;5.75;;;;;;;;;;4962195;28;20142;-75
2023/09/04 11:27:28;;;;;;;9.95;5.70;;;;;;;;;;4954797;28;20093;-77
2023/09/04 11:29:54;;;;;;;12.18;5.25;;;;;;;;;;4965262;28;20050;-76
2023/09/04 11:32:21;;;;;;;7.72;5.03;;;;;;;;;;5006448;28;20045;-75
2023/09/04 11:34:48;;;;;;;6.32;4.88;;;;;;;;;;5009927;28;20025;-76
2023/09/04 11:37:14;;;;;;;6.10;4.18;;;;;;;;;;5009271;28;20076;-76
2023/09/04 11:39:57;;;;;;;7.47;4.50;;;;;;;;;;4993189;28;20070;-76
2023/09/04 11:42:24;;;;;;;6.03;4.07;;;;;;;;;;4992780;28;20034;-74
2023/09/04 11:44:50;;;;;;;6.88;4.05;;;;;;;;;;5008834;28;20041;-77
2023/09/04 11:47:17;;;;;;;5.50;3.90;;;;;;;;;;4996579;28;20029;-74
2023/09/04 11:49:44;;;;;;;6.40;3.78;;;;;;;;;;4999706;28;20459;-75
2023/09/04 11:52:12;;;;;;;7.95;3.67;;;;;;;;;;5006933;28;20444;-76
2023/09/04 11:54:40;;;;;;;6.63;4.05;;;;;;;;;;4992724;28;20116;-76
2023/09/04 11:57:07;;;;;;;7.53;3.90;;;;;;;;;;5006796;28;20026;-76
2023/09/04 11:59:34;;;;;;;5.43;3.85;;;;;;;;;;5006697;28;20029;-75
2023/09/04 12:02:01;;;;;;;4.43;3.33;;;;;;;;;;4991397;28;20129;-75
2023/09/04 12:04:27;;;;;;;5.10;3.60;;;;;;;;;;5003326;28;20038;-76
2023/09/04 12:06:54;;;;;;;5.55;3.80;;;;;;;;;;4997767;28;20080;-75
2023/09/04 12:09:20;;;;;;;5.40;3.95;;;;;;;;;;5004022;28;20081;-75
2023/09/04 12:11:47;;;;;;;9.07;4.40;;;;;;;;;;4994745;28;20034;-75
2023/09/04 12:14:13;;;;;;;6.13;3.80;;;;;;;;;;5006836;28;20037;-77
2023/09/04 12:16:43;;;;;;;5.65;3.80;;;;;;;;;;4997586;28;20072;-76
2023/09/04 12:19:09;;;;;;;;;;;;;;;;;;4988328;28;20029;-76
2023/09/04 12:21:35;;;;;;;7.13;3.95;;;;;;;;;;5008172;28;19909;-76
2023/09/04 12:24:03;;;;;;;5.35;3.42;;;;;;;;;;4989751;28;20058;-75
2023/09/04 12:26:29;;;;;;;3.88;3.47;;;;;;;;;;5006843;28;20298;-76
2023/09/04 12:28:55;;;;;;;5.97;3.65;;;;;;;;;;4982784;28;20045;-76
2023/09/04 12:31:23;;;;;;;5.50;3.65;;;;;;;;;;4982834;28;20034;-76
2023/09/04 12:33:52;;;;;;;6.65;4.32;;;;;;;;;;4993084;28;20179;-77
2023/09/04 12:36:21;;;;;;;6.70;3.50;;;;;;;;;;5011561;28;20018;-76
2023/09/04 12:38:47;;;;;;;8.40;3.80;;;;;;;;;;4995424;28;20042;-76
2023/09/04 12:41:13;;;;;;;5.43;3.70;;;;;;;;;;5005794;28;20079;-77
2023/09/04 12:43:40;;;;;;;9.68;3.70;;;;;;;;;;5004916;28;20034;-76
2023/09/04 12:46:06;;;;;;;6.03;3.70;;;;;;;;;;4984871;28;20030;-75
2023/09/04 12:48:35;;;;;;;4.93;3.90;;;;;;;;;;4987833;28;20034;-76
2023/09/04 12:51:01;;;;;;;7.32;4.03;;;;;;;;;;5011336;28;20030;-76
2023/09/04 12:53:27;;;;;;;5.13;3.95;;;;;;;;;;5009510;28;20045;-76
2023/09/04 12:55:54;;;;;;;6.78;3.83;;;;;;;;;;5008829;28;20075;-77
2023/09/04 12:58:20;;;;;;;8.45;4.15;;;;;;;;;;4992022;28;20037;-76
2023/09/04 13:00:46;;;;;;;5.32;3.72;;;;;;;;;;5009914;28;20029;-75
2023/09/04 13:03:12;;;;;;;7.22;3.83;;;;;;;;;;5009498;28;20038;-77
2023/09/04 13:05:39;;;;;;;8.10;3.70;;;;;;;;;;4997701;28;20112;-78
2023/09/04 13:08:05;;;;;;;4.72;3.55;;;;;;;;;;5014177;28;20037;-75
2023/09/04 13:10:32;;;;;;;7.03;3.58;;;;;;;;;;4996465;28;20042;-83
2023/09/04 13:12:59;;;;;;;7.38;3.83;;;;;;;;;;5009912;28;20026;-77
2023/09/04 13:15:25;;;;;;;5.85;4.50;;;;;;;;;;5009444;28;20056;-79
2023/09/04 13:17:52;;;;;;;5.13;3.80;;;;;;;;;;4996197;28;20029;-75
2023/09/04 13:20:18;;;;;;;8.50;3.90;;;;;;;;;;5013638;28;20088;-76
2023/09/04 13:22:44;;;;;;;6.05;3.50;;;;;;;;;;5003670;28;20487;-75
2023/09/04 13:25:10;;;;;;;7.93;4.38;;;;;;;;;;5015213;28;20131;-75
2023/09/04 13:27:37;;;;;;;5.15;3.60;;;;;;;;;;5014343;28;20049;-75
2023/09/04 13:30:04;;;;;;;6.05;3.85;;;;;;;;;;4998064;28;20065;-75
2023/09/04 13:32:30;;;;;;;8.27;4.10;;;;;;;;;;5016988;28;20025;-75
2023/09/04 13:34:57;;;;;;;6.75;3.45;;;;;;;;;;5011486;28;20034;-75
2023/09/04 13:37:23;;;;;;;4.13;3.20;;;;;;;;;;5007894;28;20506;-76
2023/09/04 13:39:49;;;;;;;7.68;3.65;;;;;;;;;;5003590;28;20061;-75
2023/09/04 13:42:17;;;;;;;5.45;3.47;;;;;;;;;;5013853;28;20400;-77
2023/09/04 13:44:43;;;;;;;6.60;3.95;;;;;;;;;;5015691;28;20033;-78
2023/09/04 13:47:10;;;;;;;4.57;3.47;;;;;;;;;;5004560;28;20114;-80
2023/09/04 13:49:36;;;;;;;6.13;3.95;;;;;;;;;;5018789;28;20069;-76
2023/09/04 13:52:02;;;;;;;12.20;4.38;;;;;;;;;;5008994;28;20068;-75
2023/09/04 13:54:28;;;;;;;5.47;4.00;;;;;;;;;;4994245;28;20029;-75
2023/09/04 13:56:56;;;;;;;6.22;3.95;;;;;;;;;;5012144;28;20030;-76
2023/09/04 13:59:22;;;;;;;8.20;3.97;;;;;;;;;;5011910;28;20053;-77
2023/09/04 14:01:49;;;;;;;6.68;3.60;;;;;;;;;;4993005;28;20512;-77
2023/09/04 14:04:16;;;;;;;7.57;3.70;;;;;;;;;;5017956;28;20034;-77
2023/09/04 14:06:42;;;;;;;6.70;4.07;;;;;;;;;;5012229;28;20520;-76
2023/09/04 14:09:08;;;;;;;12.60;3.97;;;;;;;;;;5012463;28;20030;-76
2023/09/04 14:11:35;;;;;;;7.22;4.75;;;;;;;;;;5002779;28;20058;-76
2023/09/04 14:14:01;;;;;;;7.80;3.50;;;;;;;;;;4974850;28;20045;-77
2023/09/04 14:16:27;;;;;;;5.38;3.65;;;;;;;;;;4994576;28;20435;-77
2023/09/04 14:18:53;;;;;;;5.40;3.85;;;;;;;;;;5011961;28;20057;-77
2023/09/04 14:21:20;;;;;;;5.25;3.80;;;;;;;;;;5004757;28;20441;-78
2023/09/04 14:23:50;;;;;;;7.72;3.75;;;;;;;;;;4988577;28;20049;-75
2023/09/04 14:26:17;;;;;;;8.43;3.85;;;;;;;;;;4992207;28;20063;-75